Time;durP1;ratioP1;P1;durP2;ratioP2;P2;SDS_P1;SDS_P2;PMS_P1;PMS_P2;Temp;Humidity;BMP_temperature;BMP_pressure;BME280_temperature;BME280_humidity;BME280_pressure;Samples;Min_cycle;Max_cycle;Signal;HPM_P1;HPM_P2
2020/12/17 00:00:11;;;;;;;15.25;9.15;;;6.50;99.90;;;;;;5034459;28;20717;-79
2020/12/17 00:02:38;;;;;;;17.27;10.23;;;6.50;99.90;;;;;;5035563;28;20196;-79
2020/12/17 00:05:05;;;;;;;15.52;9.60;;;6.70;99.90;;;;;;5035797;28;20220;-79
2020/12/17 00:07:32;;;;;;;16.20;10.07;;;6.60;99.90;;;;;;5037297;28;20218;-78
2020/12/17 00:09:59;;;;;;;17.02;9.88;;;6.60;99.90;;;;;;5035690;28;20200;-80
2020/12/17 00:12:25;;;;;;;14.45;9.40;;;6.60;99.90;;;;;;5034464;28;20263;-79
2020/12/17 00:14:51;;;;;;;21.23;11.95;;;6.70;99.90;;;;;;5035460;28;20804;-78
2020/12/17 00:17:18;;;;;;;18.23;10.35;;;6.80;99.90;;;;;;5034445;28;20303;-72
2020/12/17 00:19:44;;;;;;;17.65;11.43;;;6.70;99.90;;;;;;5034476;28;20388;-72
2020/12/17 00:22:10;;;;;;;18.63;9.88;;;6.80;99.90;;;;;;5033998;28;20303;-72
2020/12/17 00:24:36;;;;;;;18.98;10.65;;;6.80;99.90;;;;;;5034042;28;20226;-71
2020/12/17 00:27:04;;;;;;;18.13;9.25;;;6.50;99.90;;;;;;5034379;28;20207;-71
2020/12/17 00:29:30;;;;;;;17.00;10.25;;;6.50;99.90;;;;;;5033964;28;20208;-71
2020/12/17 00:31:56;;;;;;;15.77;9.13;;;6.60;99.90;;;;;;5032076;28;20306;-73
2020/12/17 00:34:23;;;;;;;19.83;10.57;;;6.70;99.90;;;;;;5032252;28;20216;-72
2020/12/17 00:36:52;;;;;;;19.90;10.90;;;6.70;99.90;;;;;;5032352;28;20738;-73
2020/12/17 00:39:19;;;;;;;16.65;10.07;;;6.70;99.90;;;;;;5032249;28;20203;-73
2020/12/17 00:41:46;;;;;;;19.73;10.25;;;6.60;99.90;;;;;;5032114;28;20662;-74
2020/12/17 00:44:13;;;;;;;19.05;9.93;;;6.50;99.90;;;;;;5032070;28;20273;-74
2020/12/17 00:46:39;;;;;;;13.88;9.40;;;6.50;99.90;;;;;;5031994;28;20207;-72
2020/12/17 00:49:06;;;;;;;17.23;10.23;;;6.60;99.90;;;;;;5032136;28;20639;-74
2020/12/17 00:51:32;;;;;;;17.88;10.35;;;6.70;99.90;;;;;;5032448;28;20202;-75
2020/12/17 00:53:58;;;;;;;13.45;8.80;;;6.70;99.90;;;;;;5032229;28;20223;-75
2020/12/17 00:56:25;;;;;;;21.48;10.10;;;6.80;99.90;;;;;;5032505;28;20742;-71
2020/12/17 00:58:51;;;;;;;17.08;9.73;;;6.70;99.90;;;;;;5032960;28;20348;-72
2020/12/17 01:01:18;;;;;;;17.42;10.13;;;6.60;99.90;;;;;;5033329;28;20604;-75
2020/12/17 01:03:44;;;;;;;20.75;11.02;;;6.50;99.90;;;;;;5032047;28;20303;-75
2020/12/17 01:06:11;;;;;;;16.77;10.15;;;6.50;99.90;;;;;;5032019;28;20331;-75
2020/12/17 01:08:37;;;;;;;16.98;9.68;;;6.60;99.90;;;;;;5032014;28;20283;-75
2020/12/17 01:11:03;;;;;;;20.90;9.70;;;6.50;99.90;;;;;;5032100;28;20199;-75
2020/12/17 01:13:30;;;;;;;12.45;8.88;;;6.40;99.90;;;;;;5029454;28;20579;-75
2020/12/17 01:15:56;;;;;;;14.75;9.27;;;6.40;99.90;;;;;;5031792;28;20202;-76
2020/12/17 01:18:23;;;;;;;14.77;10.35;;;6.40;99.90;;;;;;5031928;28;20626;-76
2020/12/17 01:20:50;;;;;;;13.40;8.07;;;6.40;99.90;;;;;;5029353;28;20287;-76
2020/12/17 01:23:16;;;;;;;16.02;8.70;;;6.30;99.90;;;;;;5031772;28;20216;-77
2020/12/17 01:25:42;;;;;;;20.48;10.48;;;6.30;99.90;;;;;;5029253;28;20306;-76
2020/12/17 01:28:12;;;;;;;11.77;8.02;;;6.40;99.90;;;;;;5032951;28;20677;-77
2020/12/17 01:30:39;;;;;;;14.48;9.15;;;6.40;99.90;;;;;;5032372;28;20215;-77
2020/12/17 01:33:06;;;;;;;12.07;7.80;;;6.40;99.90;;;;;;5032785;28;20695;-78
2020/12/17 01:35:33;;;;;;;14.95;8.45;;;6.50;99.90;;;;;;5032854;28;20546;-76
2020/12/17 01:37:59;;;;;;;15.07;9.20;;;6.50;99.90;;;;;;5032923;28;20230;-78
2020/12/17 01:40:25;;;;;;;16.17;8.85;;;6.40;99.90;;;;;;5032593;28;20222;-77
2020/12/17 01:42:52;;;;;;;15.57;9.48;;;6.20;99.90;;;;;;5032070;28;20192;-77
2020/12/17 01:45:18;;;;;;;12.70;7.72;;;6.20;99.90;;;;;;5031596;28;20264;-76
2020/12/17 01:47:47;;;;;;;13.18;8.23;;;6.20;99.90;;;;;;5031880;28;20291;-77
2020/12/17 01:50:13;;;;;;;10.93;7.75;;;6.20;99.90;;;;;;5032161;28;20201;-77
2020/12/17 01:52:41;;;;;;;13.10;8.23;;;6.20;99.90;;;;;;5034405;28;20268;-77
2020/12/17 01:55:07;;;;;;;12.65;7.60;;;6.20;99.90;;;;;;5035551;28;20210;-76
2020/12/17 01:57:36;;;;;;;13.82;7.95;;;6.20;99.90;;;;;;5035158;28;20303;-77
2020/12/17 02:00:06;;;;;;;11.27;7.60;;;6.20;99.90;;;;;;5036028;28;20196;-75
2020/12/17 02:02:34;;;;;;;10.63;7.38;;;6.30;99.90;;;;;;5034946;28;20682;-76
2020/12/17 02:05:02;;;;;;;15.98;8.88;;;6.20;99.90;;;;;;5034977;28;20212;-77
2020/12/17 02:07:29;;;;;;;12.75;8.15;;;6.30;99.90;;;;;;5034670;28;20192;-77
2020/12/17 02:09:57;;;;;;;14.68;8.98;;;6.30;99.90;;;;;;5033604;28;20201;-73
2020/12/17 02:12:23;;;;;;;15.35;8.90;;;6.20;99.90;;;;;;5034773;28;20303;-74
2020/12/17 02:14:50;;;;;;;12.50;8.65;;;6.20;99.90;;;;;;5029409;28;20307;-76
2020/12/17 02:17:16;;;;;;;14.93;8.90;;;6.10;99.90;;;;;;5035341;28;20343;-76
2020/12/17 02:19:42;;;;;;;13.32;8.32;;;6.20;99.90;;;;;;5035009;28;20309;-76
2020/12/17 02:22:09;;;;;;;12.65;8.43;;;6.20;99.90;;;;;;5034894;28;20283;-76
2020/12/17 02:24:36;;;;;;;15.02;8.63;;;6.20;99.90;;;;;;5035296;28;20224;-76
2020/12/17 02:27:02;;;;;;;15.63;9.00;;;6.10;99.90;;;;;;5034629;28;20188;-77
2020/12/17 02:29:28;;;;;;;19.20;9.15;;;5.90;99.90;;;;;;5036496;28;20307;-70
2020/12/17 02:31:55;;;;;;;16.27;8.63;;;5.90;99.90;;;;;;5036275;28;20219;-70
2020/12/17 02:34:21;;;;;;;14.07;8.15;;;6.00;99.90;;;;;;5037186;28;20230;-70
2020/12/17 02:36:47;;;;;;;11.90;7.53;;;5.90;99.90;;;;;;5036129;28;20395;-71
2020/12/17 02:39:13;;;;;;;15.70;8.07;;;5.80;99.90;;;;;;5036582;28;20214;-71
2020/12/17 02:41:41;;;;;;;13.20;7.00;;;5.60;99.90;;;;;;5036358;28;20307;-71
2020/12/17 02:44:07;;;;;;;13.60;7.68;;;5.40;99.90;;;;;;5036340;28;20224;-71
2020/12/17 02:46:33;;;;;;;12.90;7.80;;;5.40;99.90;;;;;;5036428;28;20295;-70
2020/12/17 02:49:00;;;;;;;11.82;7.05;;;5.50;99.90;;;;;;5036526;28;20196;-71
2020/12/17 02:51:26;;;;;;;13.48;6.80;;;5.50;99.90;;;;;;5036850;28;20211;-71
2020/12/17 02:53:53;;;;;;;13.73;8.30;;;5.50;99.90;;;;;;5036926;28;20231;-71
2020/12/17 02:56:19;;;;;;;13.02;7.65;;;5.40;99.90;;;;;;5036182;28;20315;-70
2020/12/17 02:58:46;;;;;;;11.75;7.88;;;5.50;99.90;;;;;;5036469;28;20295;-71
2020/12/17 03:01:13;;;;;;;14.70;7.55;;;5.60;99.90;;;;;;5036711;28;20566;-71
2020/12/17 03:03:39;;;;;;;10.88;7.70;;;5.60;99.90;;;;;;5035940;28;20318;-71
2020/12/17 03:06:06;;;;;;;13.85;7.82;;;5.60;99.90;;;;;;5036060;28;20291;-70
2020/12/17 03:08:32;;;;;;;14.40;8.77;;;5.60;99.90;;;;;;5036214;28;20261;-71
2020/12/17 03:10:59;;;;;;;13.02;8.23;;;5.50;99.90;;;;;;5036032;28;20243;-70
2020/12/17 03:13:25;;;;;;;12.70;7.78;;;5.50;99.90;;;;;;5036032;28;20224;-71
2020/12/17 03:15:53;;;;;;;13.20;7.80;;;5.40;99.90;;;;;;5036269;28;20290;-70
2020/12/17 03:18:19;;;;;;;9.10;6.55;;;5.20;99.90;;;;;;5036302;28;20224;-71
2020/12/17 03:20:45;;;;;;;11.25;6.55;;;5.30;99.90;;;;;;5036868;28;20715;-70
2020/12/17 03:23:12;;;;;;;12.10;6.90;;;5.30;99.90;;;;;;5035850;28;20231;-70
2020/12/17 03:25:38;;;;;;;12.30;7.05;;;5.40;99.90;;;;;;5035946;28;20294;-70
2020/12/17 03:28:04;;;;;;;12.70;6.75;;;5.50;99.90;;;;;;5036248;28;20371;-71
2020/12/17 03:30:31;;;;;;;11.55;7.05;;;5.50;99.90;;;;;;5035212;28;20215;-71
2020/12/17 03:32:58;;;;;;;13.07;7.85;;;5.40;99.90;;;;;;5036236;28;20211;-71
2020/12/17 03:35:25;;;;;;;11.90;7.15;;;5.20;99.90;;;;;;5036658;28;20207;-70
2020/12/17 03:37:51;;;;;;;12.52;6.80;;;5.00;99.90;;;;;;5036407;28;20705;-71
2020/12/17 03:40:17;;;;;;;12.02;7.05;;;4.80;99.90;;;;;;5036254;28;20271;-71
2020/12/17 03:42:45;;;;;;;13.55;6.93;;;4.70;99.90;;;;;;5035831;28;20208;-70
2020/12/17 03:45:11;;;;;;;10.55;6.30;;;4.70;99.90;;;;;;5035724;28;20575;-71
2020/12/17 03:47:37;;;;;;;12.82;6.75;;;4.80;99.90;;;;;;5035971;28;20222;-71
2020/12/17 03:50:05;;;;;;;12.15;7.88;;;4.90;99.90;;;;;;5036899;28;20275;-71
2020/12/17 03:52:31;;;;;;;11.57;6.45;;;5.00;99.90;;;;;;5036440;28;20208;-71
2020/12/17 03:54:57;;;;;;;16.30;7.65;;;5.10;99.90;;;;;;5035074;28;20314;-70
2020/12/17 03:57:24;;;;;;;10.95;7.07;;;5.30;99.90;;;;;;5035728;28;20231;-71
2020/12/17 03:59:50;;;;;;;11.30;6.72;;;5.40;99.90;;;;;;5035160;28;20674;-71
2020/12/17 04:02:16;;;;;;;13.85;6.75;;;5.40;99.90;;;;;;5035330;28;20204;-71
2020/12/17 04:04:43;;;;;;;14.43;7.97;;;5.30;99.90;;;;;;5034881;28;20228;-70
2020/12/17 04:07:13;;;;;;;15.10;7.28;;;5.20;99.90;;;;;;5035287;28;20199;-70
2020/12/17 04:09:39;;;;;;;11.63;6.47;;;5.10;99.90;;;;;;5035176;28;20214;-71
2020/12/17 04:12:06;;;;;;;10.55;7.60;;;4.90;99.90;;;;;;5034803;28;20708;-70
2020/12/17 04:14:32;;;;;;;13.48;6.35;;;4.80;99.90;;;;;;5034675;28;20224;-71
2020/12/17 04:16:59;;;;;;;14.00;7.32;;;4.80;99.90;;;;;;5035232;28;20677;-71
2020/12/17 04:19:25;;;;;;;12.95;7.40;;;4.90;99.90;;;;;;5034900;28;20203;-71
2020/12/17 04:21:52;;;;;;;10.77;6.15;;;5.00;99.90;;;;;;5035189;28;20299;-71
2020/12/17 04:24:19;;;;;;;14.25;7.65;;;5.20;99.90;;;;;;5034825;28;20563;-71
2020/12/17 04:26:49;;;;;;;9.55;6.53;;;5.30;99.90;;;;;;5035111;28;20253;-70
2020/12/17 04:29:15;;;;;;;9.30;6.57;;;5.30;99.90;;;;;;5035467;28;20206;-71
2020/12/17 04:31:42;;;;;;;11.75;7.18;;;5.30;99.90;;;;;;5034822;28;20306;-71
2020/12/17 04:34:08;;;;;;;13.85;7.15;;;5.40;99.90;;;;;;5034489;28;20228;-70
2020/12/17 04:36:34;;;;;;;8.68;5.95;;;5.30;99.90;;;;;;5034672;28;20208;-70
2020/12/17 04:39:01;;;;;;;10.15;5.72;;;5.30;99.90;;;;;;5034978;28;20234;-70
2020/12/17 04:41:31;;;;;;;11.18;6.40;;;5.10;99.90;;;;;;5034488;28;20210;-71
2020/12/17 04:43:58;;;;;;;9.75;6.93;;;5.10;99.90;;;;;;5034417;28;20714;-71
2020/12/17 04:46:26;;;;;;;9.98;6.30;;;4.90;99.90;;;;;;5034778;28;20204;-70
2020/12/17 04:48:54;;;;;;;11.80;7.20;;;4.90;99.90;;;;;;5034551;28;20210;-70
2020/12/17 04:51:21;;;;;;;9.50;6.70;;;5.00;99.90;;;;;;5034747;28;20207;-70
2020/12/17 04:53:50;;;;;;;13.68;6.47;;;5.00;99.90;;;;;;5034968;28;20224;-71
2020/12/17 04:56:17;;;;;;;10.23;6.65;;;5.10;99.90;;;;;;5035096;28;20608;-71
2020/12/17 04:58:47;;;;;;;12.60;6.40;;;5.10;99.90;;;;;;5034939;28;20224;-70
2020/12/17 05:01:15;;;;;;;11.57;6.47;;;5.00;99.90;;;;;;5034688;28;20208;-71
2020/12/17 05:03:45;;;;;;;13.02;7.30;;;5.00;99.90;;;;;;5034843;28;20228;-71
2020/12/17 05:06:16;;;;;;;12.13;7.00;;;5.00;99.90;;;;;;5034683;28;20196;-70
2020/12/17 05:08:42;;;;;;;12.25;7.53;;;5.00;99.90;;;;;;5035052;28;20204;-71
2020/12/17 05:11:09;;;;;;;12.02;6.97;;;5.10;99.90;;;;;;5034844;28;20290;-71
2020/12/17 05:13:35;;;;;;;13.13;7.97;;;5.20;99.90;;;;;;5034577;28;20273;-71
2020/12/17 05:16:03;;;;;;;10.27;6.65;;;5.20;99.90;;;;;;5034186;28;20242;-70
2020/12/17 05:18:29;;;;;;;12.00;8.07;;;5.30;99.90;;;;;;5034126;28;20232;-71
2020/12/17 05:20:56;;;;;;;14.40;9.07;;;5.20;99.90;;;;;;5035007;28;20354;-71
2020/12/17 05:23:24;;;;;;;10.93;6.97;;;5.10;99.90;;;;;;5034343;28;20234;-71
2020/12/17 05:25:51;;;;;;;12.40;8.55;;;5.10;99.90;;;;;;5034772;28;20255;-71
2020/12/17 05:28:18;;;;;;;9.73;6.78;;;5.00;99.90;;;;;;5037996;28;20226;-70
2020/12/17 05:30:44;;;;;;;9.27;7.40;;;5.00;99.90;;;;;;5037565;28;20678;-70
2020/12/17 05:33:11;;;;;;;11.23;8.15;;;5.10;99.90;;;;;;5037688;28;20690;-70
2020/12/17 05:35:39;;;;;;;10.10;6.15;;;5.10;99.90;;;;;;5038179;28;20214;-70
2020/12/17 05:38:07;;;;;;;10.23;7.25;;;5.20;99.90;;;;;;5038572;28;20230;-71
2020/12/17 05:40:36;;;;;;;10.63;6.90;;;5.30;99.90;;;;;;5038372;28;20204;-71
2020/12/17 05:43:03;;;;;;;14.40;7.38;;;5.30;99.90;;;;;;5038134;28;20234;-71
2020/12/17 05:45:30;;;;;;;10.93;7.40;;;5.30;99.90;;;;;;5038191;28;20214;-70
2020/12/17 05:48:11;;;;;;;13.88;7.70;;;5.30;99.90;;;;;;5038032;28;20200;-70
2020/12/17 05:50:51;;;;;;;14.45;8.55;;;5.30;99.90;;;;;;5038171;28;20290;-71
2020/12/17 05:53:18;;;;;;;13.07;7.40;;;5.20;99.90;;;;;;5038392;28;20230;-70
2020/12/17 05:55:45;;;;;;;13.20;8.20;;;5.10;99.90;;;;;;5037309;28;20204;-71
2020/12/17 05:58:12;;;;;;;9.82;6.78;;;5.00;99.90;;;;;;5037457;28;20231;-70
2020/12/17 06:00:39;;;;;;;14.82;8.35;;;4.90;99.90;;;;;;5038005;28;20214;-71
2020/12/17 06:03:11;;;;;;;14.88;8.20;;;5.00;99.90;;;;;;5038076;28;20223;-71
2020/12/17 06:05:43;;;;;;;12.23;7.40;;;5.00;99.90;;;;;;5038241;28;20195;-71
2020/12/17 06:08:16;;;;;;;11.85;8.07;;;4.90;99.90;;;;;;5037907;28;20204;-71
2020/12/17 06:10:47;;;;;;;12.43;7.25;;;4.80;99.90;;;;;;5037784;28;20189;-71
2020/12/17 06:13:15;;;;;;;14.55;8.20;;;4.90;99.90;;;;;;5037884;28;20282;-71
2020/12/17 06:15:44;;;;;;;12.30;7.78;;;4.90;99.90;;;;;;5037703;28;20282;-71
2020/12/17 06:18:12;;;;;;;11.05;6.90;;;4.90;99.90;;;;;;5037273;28;20318;-71
2020/12/17 06:20:42;;;;;;;10.15;7.07;;;4.80;99.90;;;;;;5037402;28;20204;-70
2020/12/17 06:23:12;;;;;;;11.90;7.00;;;4.70;99.90;;;;;;5037475;28;20592;-71
2020/12/17 06:25:39;;;;;;;14.57;7.90;;;4.80;99.90;;;;;;5037769;28;20211;-70
2020/12/17 06:28:16;;;;;;;14.93;8.40;;;4.80;99.90;;;;;;5038065;28;20200;-71
2020/12/17 06:30:46;;;;;;;12.77;7.32;;;4.70;99.90;;;;;;5037304;28;20679;-71
2020/12/17 06:33:13;;;;;;;11.73;6.85;;;4.60;99.90;;;;;;5037091;28;20315;-71
2020/12/17 06:35:51;;;;;;;13.90;8.52;;;4.50;99.90;;;;;;5037692;28;20295;-70
2020/12/17 06:38:21;;;;;;;12.82;7.95;;;4.60;99.90;;;;;;5037380;28;20314;-71
2020/12/17 06:40:48;;;;;;;14.40;8.30;;;4.60;99.90;;;;;;5038996;28;20265;-71
2020/12/17 06:43:30;;;;;;;13.82;8.48;;;4.70;99.90;;;;;;5037269;28;20285;-71
2020/12/17 06:45:56;;;;;;;13.77;8.25;;;4.70;99.90;;;;;;5036833;28;20199;-70
2020/12/17 06:48:31;;;;;;;14.52;7.57;;;4.70;99.90;;;;;;5037230;28;20200;-71
2020/12/17 06:50:58;;;;;;;11.85;7.18;;;4.60;99.90;;;;;;5036803;28;20203;-71
2020/12/17 06:53:38;;;;;;;12.88;7.20;;;4.70;99.90;;;;;;5036660;28;20589;-71
2020/12/17 06:56:04;;;;;;;11.70;6.85;;;4.90;99.90;;;;;;5036293;28;20273;-70
2020/12/17 06:58:31;;;;;;;12.18;6.70;;;4.80;99.90;;;;;;5036188;28;20584;-71
2020/12/17 07:00:57;;;;;;;13.27;7.65;;;4.80;99.90;;;;;;5036655;28;20302;-71
2020/12/17 07:03:45;;;;;;;11.45;6.90;;;4.90;99.90;;;;;;5036060;28;20255;-70
2020/12/17 07:06:17;;;;;;;13.73;8.07;;;4.70;99.90;;;;;;5036369;28;20211;-70
2020/12/17 07:08:44;;;;;;;12.40;6.85;;;4.60;99.90;;;;;;5035341;28;20235;-71
2020/12/17 07:11:38;;;;;;;14.57;7.40;;;4.60;99.90;;;;;;5036194;28;20693;-71
2020/12/17 07:14:05;;;;;;;15.57;7.45;;;4.60;99.90;;;;;;5036421;28;20315;-70
2020/12/17 07:16:33;;;;;;;12.75;7.40;;;4.60;99.90;;;;;;5035475;28;20784;-70
2020/12/17 07:19:44;;;;;;;12.48;7.60;;;4.70;99.90;;;;;;5036074;28;20319;-71
2020/12/17 07:22:13;;;;;;;13.85;6.32;;;4.80;99.90;;;;;;5013666;28;20189;-71
2020/12/17 07:24:40;;;;;;;11.93;7.10;;;4.90;99.90;;;;;;5013483;28;20225;-70
2020/12/17 07:27:12;;;;;;;12.90;7.10;;;5.00;99.90;;;;;;5025553;28;20210;-71
2020/12/17 07:29:50;;;;;;;14.20;7.78;;;5.10;99.90;;;;;;5035779;28;20676;-71
2020/12/17 07:32:34;;;;;;;9.75;7.05;;;5.10;99.90;;;;;;5035612;28;20216;-71
2020/12/17 07:35:16;;;;;;;13.55;7.97;;;5.20;99.90;;;;;;5034924;28;20223;-70
2020/12/17 07:37:44;;;;;;;10.40;7.40;;;5.20;99.90;;;;;;5035471;28;20639;-70
2020/12/17 07:40:31;;;;;;;14.80;7.20;;;5.10;99.90;;;;;;5035393;28;20295;-71
2020/12/17 07:43:13;;;;;;;13.32;7.93;;;5.10;99.90;;;;;;5035412;28;20200;-71
2020/12/17 07:45:44;;;;;;;11.65;7.38;;;5.10;99.90;;;;;;5035040;28;20195;-70
2020/12/17 07:48:51;;;;;;;14.23;7.90;;;5.20;99.90;;;;;;5035440;28;20274;-71
2020/12/17 07:51:39;;;;;;;13.15;7.80;;;5.40;99.90;;;;;;5035319;28;20283;-71
2020/12/17 07:54:06;;;;;;;12.00;8.10;;;5.50;99.90;;;;;;5033857;28;20859;-71
2020/12/17 07:56:33;;;;;;;11.20;8.18;;;5.60;99.90;;;;;;5034970;28;20208;-70
2020/12/17 07:59:06;;;;;;;12.00;8.05;;;5.50;99.90;;;;;;5035542;28;20246;-71
2020/12/17 08:01:33;;;;;;;11.07;7.82;;;5.60;99.90;;;;;;5035024;28;20227;-71
2020/12/17 08:03:59;;;;;;;13.35;7.55;;;5.60;99.90;;;;;;5035408;28;20282;-71
2020/12/17 08:06:27;;;;;;;15.70;8.35;;;5.70;99.90;;;;;;5035002;28;20608;-70
2020/12/17 08:08:56;;;;;;;13.30;7.60;;;5.70;99.90;;;;;;5034468;28;20295;-71
2020/12/17 08:11:25;;;;;;;12.38;7.68;;;5.70;99.90;;;;;;5035122;28;20556;-71
2020/12/17 08:14:00;;;;;;;12.38;8.32;;;5.70;99.90;;;;;;5034547;28;20771;-71
2020/12/17 08:16:26;;;;;;;17.33;9.18;;;5.70;99.90;;;;;;5035174;28;20671;-71
2020/12/17 08:18:54;;;;;;;14.90;8.93;;;5.70;99.90;;;;;;5035323;28;20231;-71
2020/12/17 08:21:21;;;;;;;13.55;8.55;;;5.80;99.90;;;;;;5035034;28;20744;-71
2020/12/17 08:23:48;;;;;;;17.73;8.10;;;5.80;99.90;;;;;;5034928;28;20316;-71
2020/12/17 08:26:20;;;;;;;13.13;7.85;;;5.90;99.90;;;;;;5034840;28;20233;-71
2020/12/17 08:28:48;;;;;;;15.93;8.35;;;5.80;99.90;;;;;;5035240;28;20184;-71
2020/12/17 08:31:16;;;;;;;14.73;8.43;;;5.90;99.90;;;;;;5034911;28;20216;-72
2020/12/17 08:33:45;;;;;;;14.00;8.43;;;6.00;99.90;;;;;;5034650;28;20673;-71
2020/12/17 08:36:14;;;;;;;13.52;7.95;;;6.10;99.90;;;;;;5034844;28;20230;-70
2020/12/17 08:38:41;;;;;;;13.13;7.85;;;6.20;99.90;;;;;;5034542;28;20694;-71
2020/12/17 08:41:09;;;;;;;16.13;7.38;;;6.20;99.90;;;;;;5035278;28;20318;-71
2020/12/17 08:43:46;;;;;;;11.88;6.88;;;6.20;99.90;;;;;;5034494;28;20232;-71
2020/12/17 08:46:15;;;;;;;11.93;8.73;;;6.40;99.90;;;;;;5034673;28;20600;-71
2020/12/17 08:48:42;;;;;;;15.98;8.20;;;6.40;99.90;;;;;;5035367;28;20204;-71
2020/12/17 08:51:11;;;;;;;11.25;6.95;;;6.40;99.90;;;;;;5035164;28;20204;-71
2020/12/17 08:53:41;;;;;;;11.45;6.75;;;6.50;99.90;;;;;;5035270;28;20570;-71
2020/12/17 08:56:12;;;;;;;13.38;7.65;;;6.50;99.90;;;;;;5034609;28;20631;-70
2020/12/17 08:58:48;;;;;;;12.40;6.85;;;6.50;99.90;;;;;;5034555;28;20209;-70
2020/12/17 09:01:17;;;;;;;10.68;7.10;;;6.60;99.90;;;;;;5035579;28;20218;-70
2020/12/17 09:03:44;;;;;;;10.85;7.68;;;6.70;99.90;;;;;;5037698;28;20223;-73
2020/12/17 09:06:11;;;;;;;11.40;6.90;;;6.90;99.90;;;;;;5036395;28;20651;-72
2020/12/17 09:08:38;;;;;;;12.02;8.02;;;7.00;99.90;;;;;;5036745;28;20196;-71
2020/12/17 09:11:04;;;;;;;9.73;6.95;;;7.00;99.90;;;;;;5038385;28;20204;-71
2020/12/17 09:13:31;;;;;;;11.65;7.28;;;7.20;99.90;;;;;;5038579;28;20235;-72
2020/12/17 09:15:59;;;;;;;8.35;5.95;;;7.30;99.90;;;;;;5038735;28;20207;-71
2020/12/17 09:18:27;;;;;;;11.90;6.88;;;7.30;99.90;;;;;;5038714;28;20226;-72
2020/12/17 09:21:10;;;;;;;13.15;7.35;;;7.40;99.90;;;;;;5038166;28;20207;-72
2020/12/17 09:23:37;;;;;;;13.25;7.68;;;7.30;99.90;;;;;;5038188;28;20626;-71
2020/12/17 09:26:16;;;;;;;10.75;6.70;;;7.30;99.90;;;;;;5037792;28;20675;-71
2020/12/17 09:28:56;;;;;;;11.90;7.68;;;7.30;99.90;;;;;;5038323;28;20287;-72
2020/12/17 09:31:32;;;;;;;12.05;6.78;;;7.30;99.90;;;;;;5037905;28;20215;-72
2020/12/17 09:34:17;;;;;;;7.88;5.63;;;7.20;99.90;;;;;;5038082;28;20281;-72
2020/12/17 09:36:54;;;;;;;9.07;5.65;;;7.30;99.90;;;;;;5038290;28;20196;-71
2020/12/17 09:39:21;;;;;;;10.48;6.43;;;7.30;99.90;;;;;;5038041;28;20262;-72
2020/12/17 09:41:54;;;;;;;8.88;6.47;;;7.30;99.90;;;;;;5038440;28;20204;-72
2020/12/17 09:44:31;;;;;;;10.85;6.60;;;7.40;99.90;;;;;;5037933;28;20315;-72
2020/12/17 09:47:00;;;;;;;10.15;6.50;;;7.30;99.90;;;;;;5037643;28;20559;-72
2020/12/17 09:49:29;;;;;;;13.48;7.28;;;7.40;99.90;;;;;;5037418;28;20200;-72
2020/12/17 09:52:10;;;;;;;11.98;6.78;;;7.20;99.90;;;;;;5037808;28;20220;-72
2020/12/17 09:54:42;;;;;;;12.50;6.57;;;7.10;99.90;;;;;;5036657;28;20315;-71
2020/12/17 09:57:10;;;;;;;12.73;7.28;;;6.90;99.90;;;;;;5036980;28;20230;-72
2020/12/17 09:59:38;;;;;;;11.50;6.35;;;6.80;99.90;;;;;;5037019;28;20266;-71
2020/12/17 10:02:09;;;;;;;10.98;6.05;;;6.80;99.90;;;;;;5037667;28;20681;-72
2020/12/17 10:04:35;;;;;;;14.52;7.95;;;6.80;99.90;;;;;;5038194;28;20232;-71
2020/12/17 10:07:02;;;;;;;12.55;7.78;;;6.80;99.90;;;;;;5038268;28;20208;-72
2020/12/17 10:09:29;;;;;;;11.63;5.93;;;6.90;99.90;;;;;;5038270;28;20610;-72
2020/12/17 10:11:56;;;;;;;10.25;6.25;;;7.00;99.90;;;;;;5037264;28;20218;-73
2020/12/17 10:14:23;;;;;;;12.68;8.13;;;7.10;99.90;;;;;;5037147;28;20254;-72
2020/12/17 10:16:56;;;;;;;11.40;6.78;;;7.00;99.90;;;;;;5037215;28;20697;-71
2020/12/17 10:19:23;;;;;;;11.93;7.10;;;7.10;99.90;;;;;;5037301;28;20208;-72
2020/12/17 10:21:50;;;;;;;10.38;7.13;;;7.20;99.90;;;;;;5037294;28;20204;-72
2020/12/17 10:24:17;;;;;;;13.73;6.85;;;7.40;99.90;;;;;;5037130;28;20312;-72
2020/12/17 10:26:43;;;;;;;10.35;6.85;;;7.60;99.90;;;;;;5037476;28;20206;-71
2020/12/17 10:29:09;;;;;;;10.77;6.75;;;7.80;99.90;;;;;;5037138;28;20753;-72
2020/12/17 10:31:36;;;;;;;11.13;6.80;;;8.10;99.90;;;;;;5038069;28;20681;-72
2020/12/17 10:34:02;;;;;;;10.95;7.45;;;8.30;99.90;;;;;;5038006;28;20220;-72
2020/12/17 10:36:29;;;;;;;8.50;6.28;;;8.40;99.90;;;;;;5037851;28;20216;-72
2020/12/17 10:38:57;;;;;;;9.68;6.55;;;8.60;99.90;;;;;;5038112;28;20265;-72
2020/12/17 10:41:26;;;;;;;7.55;6.25;;;8.80;99.90;;;;;;5037562;28;20270;-72
2020/12/17 10:43:53;;;;;;;10.40;6.35;;;8.90;99.90;;;;;;5036709;28;20224;-72
2020/12/17 10:46:19;;;;;;;7.93;6.13;;;8.80;99.90;;;;;;5036829;28;20208;-72
2020/12/17 10:48:46;;;;;;;14.32;6.53;;;8.70;99.90;;;;;;5036773;28;20294;-72
2020/12/17 10:51:13;;;;;;;7.85;6.03;;;8.60;99.90;;;;;;5036643;28;20204;-72
2020/12/17 10:53:41;;;;;;;11.98;6.93;;;8.60;99.90;;;;;;5037069;28;20586;-73
2020/12/17 10:56:07;;;;;;;11.05;6.47;;;8.60;99.90;;;;;;5036444;28;20543;-71
2020/12/17 10:58:34;;;;;;;8.90;6.55;;;8.60;99.90;;;;;;5036516;28;20690;-73
2020/12/17 11:01:00;;;;;;;6.68;4.88;;;8.50;99.90;;;;;;5036598;28;20712;-73
2020/12/17 11:03:27;;;;;;;9.82;5.30;;;8.60;99.90;;;;;;5036949;28;20230;-72
2020/12/17 11:05:56;;;;;;;7.53;4.85;;;8.60;99.90;;;;;;5036174;28;20208;-72
2020/12/17 11:08:22;;;;;;;6.60;4.90;;;8.80;99.90;;;;;;5036396;28;20200;-73
2020/12/17 11:10:49;;;;;;;6.13;4.93;;;8.90;99.90;;;;;;5036170;28;20210;-73
2020/12/17 11:13:16;;;;;;;7.03;4.57;;;9.20;99.90;;;;;;5036219;28;20220;-73
2020/12/17 11:15:43;;;;;;;5.80;4.10;;;9.40;99.90;;;;;;5036334;28;20295;-72
2020/12/17 11:18:09;;;;;;;5.80;3.80;;;9.60;99.90;;;;;;5035869;28;20220;-72
2020/12/17 11:20:36;;;;;;;5.78;3.58;;;9.80;99.90;;;;;;5035380;28;20208;-73
2020/12/17 11:23:02;;;;;;;4.10;2.72;;;9.90;99.90;;;;;;5035590;28;20246;-72
2020/12/17 11:25:29;;;;;;;4.47;2.30;;;10.10;99.90;;;;;;5034325;28;20200;-72
2020/12/17 11:27:56;;;;;;;6.38;2.70;;;10.20;99.90;;;;;;5035866;28;20207;-72
2020/12/17 11:30:22;;;;;;;4.47;3.08;;;10.30;99.90;;;;;;5035276;28;20298;-73
2020/12/17 11:32:50;;;;;;;4.60;2.90;;;10.40;99.90;;;;;;5035682;28;20291;-72
2020/12/17 11:35:16;;;;;;;3.88;2.90;;;10.50;99.90;;;;;;5035174;28;20650;-72
2020/12/17 11:37:42;;;;;;;5.40;3.63;;;10.70;99.90;;;;;;5035212;28;20290;-72
2020/12/17 11:40:09;;;;;;;6.32;4.65;;;10.60;99.90;;;;;;5035138;28;20753;-72
2020/12/17 11:42:35;;;;;;;6.25;4.63;;;10.50;99.90;;;;;;5035635;28;20215;-72
2020/12/17 11:45:03;;;;;;;8.32;4.65;;;10.30;99.90;;;;;;5035649;28;20643;-72
2020/12/17 11:47:30;;;;;;;6.18;4.32;;;10.30;99.90;;;;;;5035042;28;20204;-72
2020/12/17 11:49:57;;;;;;;6.03;4.53;;;10.20;99.90;;;;;;5035427;28;20555;-72
2020/12/17 11:52:23;;;;;;;4.72;3.70;;;10.10;99.90;;;;;;5035018;28;20771;-72
2020/12/17 11:54:50;;;;;;;6.38;3.30;;;10.10;99.90;;;;;;5034975;28;20235;-72
2020/12/17 11:57:16;;;;;;;6.07;3.08;;;10.30;99.90;;;;;;5035872;28;20203;-73
2020/12/17 11:59:42;;;;;;;4.80;3.75;;;10.60;99.90;;;;;;5036349;28;20323;-73
2020/12/17 12:02:10;;;;;;;3.60;3.00;;;10.80;99.90;;;;;;5035646;28;20745;-73
2020/12/17 12:04:36;;;;;;;3.90;3.17;;;10.90;99.90;;;;;;5035848;28;20234;-73
2020/12/17 12:07:02;;;;;;;4.72;3.72;;;11.10;99.90;;;;;;5036267;28;20299;-73
2020/12/17 12:09:29;;;;;;;5.00;3.95;;;11.10;99.90;;;;;;5035797;28;20287;-73
2020/12/17 12:11:55;;;;;;;6.20;4.43;;;11.00;99.90;;;;;;5036054;28;20725;-73
2020/12/17 12:14:22;;;;;;;5.95;4.07;;;11.00;99.90;;;;;;5036485;28;20226;-73
2020/12/17 12:16:50;;;;;;;5.53;3.80;;;11.00;99.90;;;;;;5035252;28;20209;-72
2020/12/17 12:19:17;;;;;;;7.97;5.15;;;10.90;99.90;;;;;;5035342;28;20224;-73
2020/12/17 12:21:47;;;;;;;5.70;4.70;;;10.80;99.90;;;;;;5035459;28;20208;-72
2020/12/17 12:24:13;;;;;;;8.48;4.30;;;10.70;99.90;;;;;;5035244;28;20232;-72
2020/12/17 12:26:40;;;;;;;5.82;4.93;;;10.70;99.90;;;;;;5035385;28;20303;-72
2020/12/17 12:29:06;;;;;;;12.27;5.30;;;10.60;99.90;;;;;;5035713;28;20307;-72
2020/12/17 12:31:33;;;;;;;8.25;5.32;;;10.60;99.90;;;;;;5034961;28;20219;-72
2020/12/17 12:33:59;;;;;;;9.40;5.85;;;10.70;99.90;;;;;;5035211;28;20315;-72
2020/12/17 12:36:26;;;;;;;6.60;4.80;;;10.80;99.90;;;;;;5034652;28;20299;-73
2020/12/17 12:38:53;;;;;;;8.18;5.75;;;10.70;99.90;;;;;;5035370;28;20315;-73
2020/12/17 12:41:19;;;;;;;8.57;5.95;;;10.90;99.90;;;;;;5035478;28;20236;-72
2020/12/17 12:43:45;;;;;;;11.88;5.75;;;10.90;99.90;;;;;;5034705;28;20228;-72
2020/12/17 12:46:12;;;;;;;10.73;6.00;;;11.00;99.90;;;;;;5034977;28;20295;-72
2020/12/17 12:48:38;;;;;;;8.65;6.03;;;11.10;99.90;;;;;;5034238;28;20196;-73
2020/12/17 12:51:04;;;;;;;7.10;5.63;;;11.00;99.90;;;;;;5034227;28;20223;-72
2020/12/17 12:53:32;;;;;;;9.70;5.78;;;11.00;99.90;;;;;;5034148;28;20319;-73